sensor_id;sensor_type;location;lat;lon;timestamp;temperature;humidity
20139;DHT22;10230;51.502;10.800;2022-08-19T10:25:14;26.60;99.90
20139;DHT22;10230;51.502;10.800;2022-08-19T10:27:42;27.50;99.90
20139;DHT22;10230;51.502;10.800;2022-08-19T10:30:08;28.10;99.90
20139;DHT22;10230;51.502;10.800;2022-08-19T10:32:35;28.10;99.90
20139;DHT22;10230;51.502;10.800;2022-08-19T10:35:02;28.10;99.90
20139;DHT22;10230;51.502;10.800;2022-08-19T10:37:28;28.20;99.90
20139;DHT22;10230;51.502;10.800;2022-08-19T10:39:56;28.10;99.90
20139;DHT22;10230;51.502;10.800;2022-08-19T10:42:21;28.20;99.90
20139;DHT22;10230;51.502;10.800;2022-08-19T10:44:47;28.30;99.90
20139;DHT22;10230;51.502;10.800;2022-08-19T10:47:13;28.50;99.90
20139;DHT22;10230;51.502;10.800;2022-08-19T10:49:40;28.60;99.90
20139;DHT22;10230;51.502;10.800;2022-08-19T10:52:25;28.50;99.90
20139;DHT22;10230;51.502;10.800;2022-08-19T10:55:02;28.40;99.90
20139;DHT22;10230;51.502;10.800;2022-08-19T10:57:46;28.30;99.90
20139;DHT22;10230;51.502;10.800;2022-08-19T11:00:12;28.20;99.90
20139;DHT22;10230;51.502;10.800;2022-08-19T11:02:38;28.20;99.90
20139;DHT22;10230;51.502;10.800;2022-08-19T11:05:05;28.20;99.90
20139;DHT22;10230;51.502;10.800;2022-08-19T11:07:32;28.30;99.90
20139;DHT22;10230;51.502;10.800;2022-08-19T11:09:58;28.50;99.90
20139;DHT22;10230;51.502;10.800;2022-08-19T11:12:24;27.80;99.90
20139;DHT22;10230;51.502;10.800;2022-08-19T11:14:50;29.10;99.90
20139;DHT22;10230;51.502;10.800;2022-08-19T11:17:16;29.50;99.90
20139;DHT22;10230;51.502;10.800;2022-08-19T11:24:36;31.30;99.90
20139;DHT22;10230;51.502;10.800;2022-08-19T11:27:05;31.80;92.30
20139;DHT22;10230;51.502;10.800;2022-08-19T11:32:02;34.00;82.00
20139;DHT22;10230;51.502;10.800;2022-08-19T11:39:27;36.90;79.40
20139;DHT22;10230;51.502;10.800;2022-08-19T11:41:53;37.40;79.90
20139;DHT22;10230;51.502;10.800;2022-08-19T11:44:19;37.40;78.10
20139;DHT22;10230;51.502;10.800;2022-08-19T11:46:45;37.30;77.70
20139;DHT22;10230;51.502;10.800;2022-08-19T11:56:31;37.60;55.80
20139;DHT22;10230;51.502;10.800;2022-08-19T11:58:56;37.10;56.00
20139;DHT22;10230;51.502;10.800;2022-08-19T12:01:22;36.70;56.40
20139;DHT22;10230;51.502;10.800;2022-08-19T12:03:48;36.60;56.80
20139;DHT22;10230;51.502;10.800;2022-08-19T12:06:15;36.70;56.80
20139;DHT22;10230;51.502;10.800;2022-08-19T12:08:42;36.50;57.10
20139;DHT22;10230;51.502;10.800;2022-08-19T12:11:08;36.60;56.40
20139;DHT22;10230;51.502;10.800;2022-08-19T12:13:34;36.90;56.50
20139;DHT22;10230;51.502;10.800;2022-08-19T12:16:00;37.20;55.40
20139;DHT22;10230;51.502;10.800;2022-08-19T12:20:52;36.10;54.60
20139;DHT22;10230;51.502;10.800;2022-08-19T12:23:18;35.70;57.00
20139;DHT22;10230;51.502;10.800;2022-08-19T12:25:44;35.50;56.00
20139;DHT22;10230;51.502;10.800;2022-08-19T12:30:41;34.40;72.40
20139;DHT22;10230;51.502;10.800;2022-08-19T12:33:07;34.20;57.90
20139;DHT22;10230;51.502;10.800;2022-08-19T12:45:17;30.40;65.00
20139;DHT22;10230;51.502;10.800;2022-08-19T12:47:43;30.20;66.70
20139;DHT22;10230;51.502;10.800;2022-08-19T12:50:08;29.80;68.40
20139;DHT22;10230;51.502;10.800;2022-08-19T12:52:36;29.60;68.60
20139;DHT22;10230;51.502;10.800;2022-08-19T12:55:08;29.50;68.90
20139;DHT22;10230;51.502;10.800;2022-08-19T12:57:34;29.50;69.20
20139;DHT22;10230;51.502;10.800;2022-08-19T13:00:05;29.80;68.10
20139;DHT22;10230;51.502;10.800;2022-08-19T13:02:40;30.00;68.20
20139;DHT22;10230;51.502;10.800;2022-08-19T13:05:08;29.80;68.00
20139;DHT22;10230;51.502;10.800;2022-08-19T13:07:34;31.00;74.90
20139;DHT22;10230;51.502;10.800;2022-08-19T13:10:00;31.30;80.60
20139;DHT22;10230;51.502;10.800;2022-08-19T13:12:26;31.40;82.80
20139;DHT22;10230;51.502;10.800;2022-08-19T13:14:53;31.20;81.60
20139;DHT22;10230;51.502;10.800;2022-08-19T13:17:19;30.90;77.40
20139;DHT22;10230;51.502;10.800;2022-08-19T13:19:45;30.40;67.40
20139;DHT22;10230;51.502;10.800;2022-08-19T13:22:11;30.10;69.00
20139;DHT22;10230;51.502;10.800;2022-08-19T13:24:37;30.10;69.40
20139;DHT22;10230;51.502;10.800;2022-08-19T13:27:04;30.20;68.60
20139;DHT22;10230;51.502;10.800;2022-08-19T13:29:29;30.00;69.30
20139;DHT22;10230;51.502;10.800;2022-08-19T13:32:13;29.80;69.90
20139;DHT22;10230;51.502;10.800;2022-08-19T13:34:58;29.70;70.40
20139;DHT22;10230;51.502;10.800;2022-08-19T13:37:23;29.80;71.00
20139;DHT22;10230;51.502;10.800;2022-08-19T13:40:11;30.00;69.60
20139;DHT22;10230;51.502;10.800;2022-08-19T13:42:39;30.30;68.80
20139;DHT22;10230;51.502;10.800;2022-08-19T13:45:05;30.50;68.40
20139;DHT22;10230;51.502;10.800;2022-08-19T13:47:32;30.70;68.10
20139;DHT22;10230;51.502;10.800;2022-08-19T13:50:04;31.10;67.70
20139;DHT22;10230;51.502;10.800;2022-08-19T13:52:30;31.50;77.60
20139;DHT22;10230;51.502;10.800;2022-08-19T13:54:56;31.70;84.40
20139;DHT22;10230;51.502;10.800;2022-08-19T13:57:22;31.90;81.40
20139;DHT22;10230;51.502;10.800;2022-08-19T13:59:48;32.00;75.40
20139;DHT22;10230;51.502;10.800;2022-08-19T14:02:14;32.10;76.70
20139;DHT22;10230;51.502;10.800;2022-08-19T14:04:40;32.10;72.60
20139;DHT22;10230;51.502;10.800;2022-08-19T14:07:05;32.30;78.60
20139;DHT22;10230;51.502;10.800;2022-08-19T14:09:31;32.40;75.70
20139;DHT22;10230;51.502;10.800;2022-08-19T14:11:57;32.40;75.60
20139;DHT22;10230;51.502;10.800;2022-08-19T14:14:22;32.30;76.10
20139;DHT22;10230;51.502;10.800;2022-08-19T14:16:49;32.30;75.70
20139;DHT22;10230;51.502;10.800;2022-08-19T14:19:14;32.20;74.40
20139;DHT22;10230;51.502;10.800;2022-08-19T14:21:40;31.80;75.00
20139;DHT22;10230;51.502;10.800;2022-08-19T14:24:07;31.60;81.90
20139;DHT22;10230;51.502;10.800;2022-08-19T14:26:33;31.30;71.90
20139;DHT22;10230;51.502;10.800;2022-08-19T14:28:59;31.20;80.60
20139;DHT22;10230;51.502;10.800;2022-08-19T14:31:26;30.70;62.80
20139;DHT22;10230;51.502;10.800;2022-08-19T14:36:19;29.90;64.50
20139;DHT22;10230;51.502;10.800;2022-08-19T14:38:46;29.80;70.00
20139;DHT22;10230;51.502;10.800;2022-08-19T14:41:21;29.80;70.20
20139;DHT22;10230;51.502;10.800;2022-08-19T14:43:49;29.90;69.60
20139;DHT22;10230;51.502;10.800;2022-08-19T14:46:18;29.90;70.70
20139;DHT22;10230;51.502;10.800;2022-08-19T14:48:46;30.00;70.50
20139;DHT22;10230;51.502;10.800;2022-08-19T14:51:12;29.80;64.70
20139;DHT22;10230;51.502;10.800;2022-08-19T14:56:13;29.60;65.40
20139;DHT22;10230;51.502;10.800;2022-08-19T15:03:33;28.90;66.70
20139;DHT22;10230;51.502;10.800;2022-08-19T15:06:00;28.60;88.70
20139;DHT22;10230;51.502;10.800;2022-08-19T15:10:53;28.40;67.80
20139;DHT22;10230;51.502;10.800;2022-08-19T15:13:19;28.30;69.20
